Sea Success — VRS4325 — position and weather

sailwx.info

Track history (hours):
 
Tides and Currents Weather Stations Pressure Air Temp Water Temp Dewpoint Dewpoint Depression Visibility Wind Speed Wind Dir Waves Ship Positions

Sea Success

Last reported at 2016-Feb-06 23:33 UTC. Time now 2016-Feb-09 09:55 UTC.
Position N 22°18' E 114°09'.

Length 27 m.

Type: High speed craft. MMSI: 477995071.

Date/timePositionNaut miles runAvg speedWind from/ knotsBaromVisibWave heightAir tempDewpointWater temp
2016-Feb-06 23:33N 22°18' E 114°09'5 0.5
2016-Feb-06 13:33N 22°17' E 114°04'2 1.7
2016-Feb-06 12:10N 22°16' E 114°02'711.8
2016-Feb-06 11:33N 22°17' E 114°09'5 4.0
2016-Feb-06 10:20N 22°17' E 114°04'1 1.1
2016-Feb-06 09:32N 22°17' E 114°03'6 6.0
2016-Feb-06 08:34N 22°17' E 114°10'7 2.8
2016-Feb-06 06:08N 22°17' E 114°02'711.9
2016-Feb-06 05:33N 22°17' E 114°10'8 3.4
2016-Feb-06 03:19N 22°16' E 114°02'8 9.8
2016-Feb-06 02:33N 22°17' E 114°10'7 5.9
2016-Feb-06 01:18N 22°16' E 114°02'1 0.7
2016-Feb-06 00:08N 22°17' E 114°02'711.8
2016-Feb-05 23:33N 22°17' E 114°10'3 3.0
2016-Feb-05 22:32N 22°17' E 114°06'1 0.1
2016-Feb-05 13:32N 22°17' E 114°05'3 2.2
2016-Feb-05 12:11N 22°16' E 114°02'711.4
2016-Feb-05 11:33N 22°17' E 114°10'3 2.3
2016-Feb-05 10:14N 22°17' E 114°06'3 4.7
2016-Feb-05 09:33N 22°18' E 114°10'1 0.8
2016-Feb-05 08:33N 22°18' E 114°09'7 3.3
2016-Feb-05 06:19N 22°16' E 114°02'7 9.8
2016-Feb-05 05:33N 22°17' E 114°10'7 2.8
2016-Feb-05 03:08N 22°17' E 114°02'711.5
2016-Feb-05 02:33N 22°17' E 114°10'7 6.1
2016-Feb-05 01:19N 22°16' E 114°02'7 4.2
2016-Feb-04 23:33N 22°17' E 114°10'5 4.3
2016-Feb-04 22:31N 22°17' E 114°05'0 0.0
2016-Feb-04 13:31N 22°17' E 114°05'4 2.1
2016-Feb-04 11:33N 22°17' E 114°10'7 7.0
2016-Feb-04 10:33N 22°17' E 114°02'7 6.7
2016-Feb-04 09:33N 22°18' E 114°09'0 0.1
2016-Feb-04 08:33N 22°18' E 114°09'1 0.2
2016-Feb-04 05:33N 22°17' E 114°10'5 2.0
2016-Feb-04 03:03N 22°17' E 114°04'510.1
2016-Feb-04 02:33N 22°17' E 114°10'7 5.7
2016-Feb-04 01:21N 22°16' E 114°02'7 3.9
2016-Feb-03 23:34N 22°17' E 114°10'1 0.5
2016-Feb-03 22:33N 22°18' E 114°09'4 0.4
2016-Feb-03 13:30N 22°17' E 114°05'4 2.1
2016-Feb-03 11:34N 22°17' E 114°10'3 2.4
2016-Feb-03 10:14N 22°17' E 114°06'3 4.6
2016-Feb-03 09:33N 22°17' E 114°10'1 0.8
2016-Feb-03 08:33N 22°18' E 114°09'1 0.4
2016-Feb-03 06:33N 22°17' E 114°10'4 3.7
2016-Feb-03 05:21N 22°17' E 114°05'4 5.6
2016-Feb-03 04:33N 22°17' E 114°10'0 0.1
2016-Feb-03 03:33N 22°17' E 114°09'0 0.1
2016-Feb-03 02:34N 22°17' E 114°10'5 3.9
2016-Feb-03 01:16N 22°17' E 114°04'5 3.0
2016-Feb-02 23:33N 22°17' E 114°10'5 4.4
2016-Feb-02 22:32N 22°17' E 114°05'0 0.0
2016-Feb-02 13:32N 22°17' E 114°04'3 1.9
2016-Feb-02 12:11N 22°16' E 114°02'711.9
2016-Feb-02 11:33N 22°17' E 114°10'5 3.8
2016-Feb-02 10:19N 22°17' E 114°05'4 5.8
2016-Feb-02 09:33N 22°18' E 114°09'1 1.4
2016-Feb-02 08:32N 22°20' E 114°09'4 3.5
2016-Feb-02 07:31N 22°17' E 114°06'1 0.4
2016-Feb-02 04:33N 22°17' E 114°05'0 0.1
2016-Feb-02 01:32N 22°17' E 114°05'4 2.1
2016-Feb-01 23:33N 22°17' E 114°10'1 0.7
2016-Feb-01 22:33N 22°18' E 114°09'4 0.4
2016-Feb-01 13:30N 22°17' E 114°05'4 2.2
2016-Feb-01 11:33N 22°17' E 114°10'4 3.3
2016-Feb-01 10:18N 22°17' E 114°05'4 5.9
2016-Feb-01 09:33N 22°18' E 114°10'0 0.4
2016-Feb-01 08:33N 22°18' E 114°09'7 3.4
2016-Feb-01 06:21N 22°16' E 114°02'8 9.5
2016-Feb-01 05:33N 22°17' E 114°10'7 3.1
2016-Feb-01 03:18N 22°17' E 114°02'7 9.6
2016-Feb-01 02:33N 22°17' E 114°10'4 3.1
2016-Feb-01 01:15N 22°17' E 114°05'3 2.5
2016-Feb-01 00:09N 22°17' E 114°02'711.5
2016-Jan-31 23:33N 22°17' E 114°10'5 4.5
2016-Jan-31 22:30N 22°17' E 114°05'4 0.4
2016-Jan-31 13:33N 22°18' E 114°09'2 2.2
2016-Jan-31 12:33N 22°17' E 114°06'4 2.8
2016-Jan-31 11:12N 22°17' E 114°02'711.0
2016-Jan-31 10:34N 22°17' E 114°10'4 2.8
2016-Jan-31 09:17N 22°17' E 114°06'4 5.3
2016-Jan-31 08:33N 22°17' E 114°10'0 0.5
2016-Jan-31 07:33N 22°17' E 114°09'0 0.0
2016-Jan-31 06:33N 22°17' E 114°09'0 0.0
2016-Jan-31 05:33N 22°17' E 114°09'3 2.6
2016-Jan-31 04:14N 22°17' E 114°06'3 4.8
2016-Jan-31 03:33N 22°18' E 114°09'3 2.7
2016-Jan-31 02:33N 22°18' E 114°06'3 2.9
2016-Jan-31 01:33N 22°18' E 114°09'0 0.0
2016-Jan-31 00:33N 22°18' E 114°09'1 1.4
2016-Jan-30 23:33N 22°20' E 114°09'5 0.4
2016-Jan-30 13:32N 22°17' E 114°05'4 2.2
2016-Jan-30 11:33N 22°17' E 114°10'4 3.1
2016-Jan-30 10:16N 22°17' E 114°05'4 2.4
2016-Jan-30 08:33N 22°17' E 114°10'8 3.5
2016-Jan-30 06:23N 22°16' E 114°02'8 9.2
2016-Jan-30 05:33N 22°17' E 114°10'0 0.0
2016-Jan-30 02:33N 22°17' E 114°10'4 4.0
2016-Jan-30 01:30N 22°17' E 114°05'4 2.1
2016-Jan-29 23:33N 22°17' E 114°10'4 3.5
2016-Jan-29 22:23N 22°17' E 114°05'0 0.0
2016-Jan-29 13:33N 22°17' E 114°05'4 2.2
2016-Jan-29 11:33N 22°17' E 114°10'5 4.6
2016-Jan-29 10:21N 22°17' E 114°04'5 6.5
2016-Jan-29 09:33N 22°18' E 114°09'0 0.1
2016-Jan-29 08:33N 22°18' E 114°09'1 0.3
2016-Jan-29 05:33N 22°17' E 114°10'7 3.1
2016-Jan-29 03:17N 22°17' E 114°02'7 9.7
2016-Jan-29 02:33N 22°17' E 114°10'7 6.5
2016-Jan-29 01:29N 22°16' E 114°02'1 0.4
2016-Jan-29 00:06N 22°17' E 114°02'712.5
2016-Jan-28 23:33N 22°17' E 114°10'3 2.8
2016-Jan-28 22:33N 22°17' E 114°07'2 0.2
2016-Jan-28 13:32N 22°17' E 114°05'3 2.2
2016-Jan-28 12:06N 22°16' E 114°02'713.9
2016-Jan-28 11:34N 22°17' E 114°10'4 2.8
2016-Jan-28 10:16N 22°17' E 114°06'4 5.0
2016-Jan-28 09:33N 22°18' E 114°09'1 0.7
2016-Jan-28 08:33N 22°18' E 114°09'1 0.2
2016-Jan-28 05:33N 22°17' E 114°10'7 3.1
2016-Jan-28 03:17N 22°17' E 114°02'7 9.7
2016-Jan-28 02:33N 22°17' E 114°10'8 6.9
2016-Jan-28 01:27N 22°16' E 114°02'8 4.0
2016-Jan-27 23:33N 22°17' E 114°10'  
Track history (hours):
 
Tides and Currents Weather Stations Pressure Air Temp Water Temp Dewpoint Dewpoint Depression Visibility Wind Speed Wind Dir Waves Ship Positions

Sea Success

Last reported at 2016-Feb-06 23:33 UTC. Time now 2016-Feb-09 09:55 UTC.
Position N 22°18' E 114°09'.

Length 27 m.

Type: High speed craft. MMSI: 477995071.

Date/timePositionNaut miles runAvg speedWind from/ knotsBaromVisibWave heightAir tempDewpointWater temp
2016-Feb-06 23:33N 22°18' E 114°09'5 0.5
2016-Feb-06 13:33N 22°17' E 114°04'2 1.7
2016-Feb-06 12:10N 22°16' E 114°02'711.8
2016-Feb-06 11:33N 22°17' E 114°09'5 4.0
2016-Feb-06 10:20N 22°17' E 114°04'1 1.1
2016-Feb-06 09:32N 22°17' E 114°03'6 6.0
2016-Feb-06 08:34N 22°17' E 114°10'7 2.8
2016-Feb-06 06:08N 22°17' E 114°02'711.9
2016-Feb-06 05:33N 22°17' E 114°10'8 3.4
2016-Feb-06 03:19N 22°16' E 114°02'8 9.8
2016-Feb-06 02:33N 22°17' E 114°10'7 5.9
2016-Feb-06 01:18N 22°16' E 114°02'1 0.7
2016-Feb-06 00:08N 22°17' E 114°02'711.8
2016-Feb-05 23:33N 22°17' E 114°10'3 3.0
2016-Feb-05 22:32N 22°17' E 114°06'1 0.1
2016-Feb-05 13:32N 22°17' E 114°05'3 2.2
2016-Feb-05 12:11N 22°16' E 114°02'711.4
2016-Feb-05 11:33N 22°17' E 114°10'3 2.3
2016-Feb-05 10:14N 22°17' E 114°06'3 4.7
2016-Feb-05 09:33N 22°18' E 114°10'1 0.8
2016-Feb-05 08:33N 22°18' E 114°09'7 3.3
2016-Feb-05 06:19N 22°16' E 114°02'7 9.8
2016-Feb-05 05:33N 22°17' E 114°10'7 2.8
2016-Feb-05 03:08N 22°17' E 114°02'711.5
2016-Feb-05 02:33N 22°17' E 114°10'7 6.1
2016-Feb-05 01:19N 22°16' E 114°02'7 4.2
2016-Feb-04 23:33N 22°17' E 114°10'5 4.3
2016-Feb-04 22:31N 22°17' E 114°05'0 0.0
2016-Feb-04 13:31N 22°17' E 114°05'4 2.1
2016-Feb-04 11:33N 22°17' E 114°10'7 7.0
2016-Feb-04 10:33N 22°17' E 114°02'7 6.7
2016-Feb-04 09:33N 22°18' E 114°09'0 0.1
2016-Feb-04 08:33N 22°18' E 114°09'1 0.2
2016-Feb-04 05:33N 22°17' E 114°10'5 2.0
2016-Feb-04 03:03N 22°17' E 114°04'510.1
2016-Feb-04 02:33N 22°17' E 114°10'7 5.7
2016-Feb-04 01:21N 22°16' E 114°02'7 3.9
2016-Feb-03 23:34N 22°17' E 114°10'1 0.5
2016-Feb-03 22:33N 22°18' E 114°09'4 0.4
2016-Feb-03 13:30N 22°17' E 114°05'4 2.1
2016-Feb-03 11:34N 22°17' E 114°10'3 2.4
2016-Feb-03 10:14N 22°17' E 114°06'3 4.6
2016-Feb-03 09:33N 22°17' E 114°10'1 0.8
2016-Feb-03 08:33N 22°18' E 114°09'1 0.4
2016-Feb-03 06:33N 22°17' E 114°10'4 3.7
2016-Feb-03 05:21N 22°17' E 114°05'4 5.6
2016-Feb-03 04:33N 22°17' E 114°10'0 0.1
2016-Feb-03 03:33N 22°17' E 114°09'0 0.1
2016-Feb-03 02:34N 22°17' E 114°10'5 3.9
2016-Feb-03 01:16N 22°17' E 114°04'5 3.0
2016-Feb-02 23:33N 22°17' E 114°10'5 4.4
2016-Feb-02 22:32N 22°17' E 114°05'0 0.0
2016-Feb-02 13:32N 22°17' E 114°04'3 1.9
2016-Feb-02 12:11N 22°16' E 114°02'711.9
2016-Feb-02 11:33N 22°17' E 114°10'5 3.8
2016-Feb-02 10:19N 22°17' E 114°05'4 5.8
2016-Feb-02 09:33N 22°18' E 114°09'1 1.4
2016-Feb-02 08:32N 22°20' E 114°09'4 3.5
2016-Feb-02 07:31N 22°17' E 114°06'1 0.4
2016-Feb-02 04:33N 22°17' E 114°05'0 0.1
2016-Feb-02 01:32N 22°17' E 114°05'4 2.1
2016-Feb-01 23:33N 22°17' E 114°10'1 0.7
2016-Feb-01 22:33N 22°18' E 114°09'4 0.4
2016-Feb-01 13:30N 22°17' E 114°05'4 2.2
2016-Feb-01 11:33N 22°17' E 114°10'4 3.3
2016-Feb-01 10:18N 22°17' E 114°05'4 5.9
2016-Feb-01 09:33N 22°18' E 114°10'0 0.4
2016-Feb-01 08:33N 22°18' E 114°09'7 3.4
2016-Feb-01 06:21N 22°16' E 114°02'8 9.5
2016-Feb-01 05:33N 22°17' E 114°10'7 3.1
2016-Feb-01 03:18N 22°17' E 114°02'7 9.6
2016-Feb-01 02:33N 22°17' E 114°10'4 3.1
2016-Feb-01 01:15N 22°17' E 114°05'3 2.5
2016-Feb-01 00:09N 22°17' E 114°02'711.5
2016-Jan-31 23:33N 22°17' E 114°10'5 4.5
2016-Jan-31 22:30N 22°17' E 114°05'4 0.4
2016-Jan-31 13:33N 22°18' E 114°09'2 2.2
2016-Jan-31 12:33N 22°17' E 114°06'4 2.8
2016-Jan-31 11:12N 22°17' E 114°02'711.0
2016-Jan-31 10:34N 22°17' E 114°10'4 2.8
2016-Jan-31 09:17N 22°17' E 114°06'4 5.3
2016-Jan-31 08:33N 22°17' E 114°10'0 0.5
2016-Jan-31 07:33N 22°17' E 114°09'0 0.0
2016-Jan-31 06:33N 22°17' E 114°09'0 0.0
2016-Jan-31 05:33N 22°17' E 114°09'3 2.6
2016-Jan-31 04:14N 22°17' E 114°06'3 4.8
2016-Jan-31 03:33N 22°18' E 114°09'3 2.7
2016-Jan-31 02:33N 22°18' E 114°06'3 2.9
2016-Jan-31 01:33N 22°18' E 114°09'0 0.0
2016-Jan-31 00:33N 22°18' E 114°09'1 1.4
2016-Jan-30 23:33N 22°20' E 114°09'5 0.4
2016-Jan-30 13:32N 22°17' E 114°05'4 2.2
2016-Jan-30 11:33N 22°17' E 114°10'4 3.1
2016-Jan-30 10:16N 22°17' E 114°05'4 2.4
2016-Jan-30 08:33N 22°17' E 114°10'8 3.5
2016-Jan-30 06:23N 22°16' E 114°02'8 9.2
2016-Jan-30 05:33N 22°17' E 114°10'0 0.0
2016-Jan-30 02:33N 22°17' E 114°10'4 4.0
2016-Jan-30 01:30N 22°17' E 114°05'4 2.1
2016-Jan-29 23:33N 22°17' E 114°10'4 3.5
2016-Jan-29 22:23N 22°17' E 114°05'0 0.0
2016-Jan-29 13:33N 22°17' E 114°05'4 2.2
2016-Jan-29 11:33N 22°17' E 114°10'5 4.6
2016-Jan-29 10:21N 22°17' E 114°04'5 6.5
2016-Jan-29 09:33N 22°18' E 114°09'0 0.1
2016-Jan-29 08:33N 22°18' E 114°09'1 0.3
2016-Jan-29 05:33N 22°17' E 114°10'7 3.1
2016-Jan-29 03:17N 22°17' E 114°02'7 9.7
2016-Jan-29 02:33N 22°17' E 114°10'7 6.5
2016-Jan-29 01:29N 22°16' E 114°02'1 0.4
2016-Jan-29 00:06N 22°17' E 114°02'712.5
2016-Jan-28 23:33N 22°17' E 114°10'3 2.8
2016-Jan-28 22:33N 22°17' E 114°07'2 0.2
2016-Jan-28 13:32N 22°17' E 114°05'3 2.2
2016-Jan-28 12:06N 22°16' E 114°02'713.9
2016-Jan-28 11:34N 22°17' E 114°10'4 2.8
2016-Jan-28 10:16N 22°17' E 114°06'4 5.0
2016-Jan-28 09:33N 22°18' E 114°09'1 0.7
2016-Jan-28 08:33N 22°18' E 114°09'1 0.2
2016-Jan-28 05:33N 22°17' E 114°10'7 3.1
2016-Jan-28 03:17N 22°17' E 114°02'7 9.7
2016-Jan-28 02:33N 22°17' E 114°10'8 6.9
2016-Jan-28 01:27N 22°16' E 114°02'8 4.0
2016-Jan-27 23:33N 22°17' E 114°10'  

Dump ship's entire track history